KLIC/LIC METAR and TAF weather

Enter ICAO airport designator
Station Type Date Time Source
KLIC METAR 2021/09/20 04:55 UTC NOAA

KLIC 200455Z AUTO 33003KT 10SM CLR 17/02 A2982 RMK AO2 SLP014 T01670022


Station Type Date Time Source
KLIC Decoded METAR 2021/09/20 04:55 UTC NOAA

LIMON MUNICIPAL AIRPORT, CO, United States (KLIC) 39-16N 103-40W 1630M
Sep 20, 2021 - 12:55 AM EDT / 2021.09.20 0455 UTC
Wind: from the NNW (330 degrees) at 3 MPH (3 KT):0
Visibility: 10 mile(s):0
Sky conditions: clear
Temperature: 62.1 F (16.7 C)
Dew Point: 36.0 F (2.2 C)
Relative Humidity: 37%
Pressure (altimeter): 29.82 in. Hg (1009 hPa)
ob: KLIC 200455Z AUTO 33003KT 10SM CLR 17/02 A2982 RMK AO2 SLP014 T01670022
cycle: 5

Station Type Date Time Source
KLIC TAF UTC NOAA

Error!

Example: see airport list